Time;durP1;ratioP1;P1;durP2;ratioP2;P2;SDS_P1;SDS_P2;PMS_P1;PMS_P2;Temp;Humidity;BMP_temperature;BMP_pressure;BME280_temperature;BME280_humidity;BME280_pressure;Samples;Min_cycle;Max_cycle;Signal;HPM_P1;HPM_P2
2022/12/18 00:00:06;;;;;;;126.88;16.05;;;;;;;;;;8270577;28;20025;-76
2022/12/18 00:04:07;;;;;;;70.60;11.00;;;;;;;;;;8271212;28;20025;-76
2022/12/18 00:08:09;;;;;;;28.67;11.50;;;;;;;;;;8271476;28;20137;-76
2022/12/18 00:12:09;;;;;;;105.32;14.80;;;;;;;;;;8267873;28;20025;-76
2022/12/18 00:16:10;;;;;;;108.97;13.63;;;;;;;;;;8269179;28;20103;-76
2022/12/18 00:20:10;;;;;;;93.70;12.88;;;;;;;;;;8269564;28;20062;-76
2022/12/18 00:24:11;;;;;;;25.05;11.27;;;;;;;;;;8271786;28;20185;-76
2022/12/18 00:28:11;;;;;;;27.08;11.02;;;;;;;;;;8269415;28;21074;-76
2022/12/18 00:32:11;;;;;;;100.53;14.65;;;;;;;;;;8270703;28;20034;-76
2022/12/18 00:36:13;;;;;;;30.60;11.52;;;;;;;;;;8269125;28;21038;-76
2022/12/18 00:40:13;;;;;;;111.88;15.32;;;;;;;;;;8266668;28;20280;-76
2022/12/18 00:44:14;;;;;;;27.65;10.93;;;;;;;;;;8269460;28;20076;-76
2022/12/18 00:48:15;;;;;;;52.03;12.40;;;;;;;;;;8271305;28;20502;-77
2022/12/18 00:52:15;;;;;;;29.02;12.30;;;;;;;;;;8271804;28;20034;-76
2022/12/18 00:56:15;;;;;;;25.67;11.10;;;;;;;;;;8270703;28;20029;-76
2022/12/18 01:00:15;;;;;;;31.25;14.40;;;;;;;;;;8269769;28;20030;-76
2022/12/18 01:04:15;;;;;;;24.17;11.32;;;;;;;;;;8275542;28;20273;-77
2022/12/18 01:08:16;;;;;;;25.27;11.38;;;;;;;;;;8276079;28;20048;-76
2022/12/18 01:12:16;;;;;;;25.00;10.45;;;;;;;;;;8275639;28;20025;-76
2022/12/18 01:16:17;;;;;;;24.98;11.57;;;;;;;;;;8273493;28;20033;-76
2022/12/18 01:20:17;;;;;;;30.48;11.98;;;;;;;;;;8274961;28;20022;-76
2022/12/18 01:24:17;;;;;;;23.80;10.75;;;;;;;;;;8282240;28;20025;-76
2022/12/18 01:28:18;;;;;;;23.02;11.82;;;;;;;;;;8273366;28;20120;-76
2022/12/18 01:32:18;;;;;;;27.20;11.88;;;;;;;;;;8275808;28;20114;-76
2022/12/18 01:36:26;;;;;;;25.42;11.32;;;;;;;;;;8273862;28;21042;-76
2022/12/18 01:40:26;;;;;;;35.10;11.95;;;;;;;;;;8273182;28;20037;-76
2022/12/18 01:45:04;;;;;;;28.73;12.05;;;;;;;;;;8275864;28;20457;-76
2022/12/18 01:49:05;;;;;;;34.70;12.45;;;;;;;;;;8199442;28;20058;-76
2022/12/18 01:53:07;;;;;;;50.88;11.23;;;;;;;;;;8233905;28;20053;-76
2022/12/18 01:57:07;;;;;;;23.33;10.93;;;;;;;;;;8272861;28;20030;-76
2022/12/18 02:01:08;;;;;;;27.33;10.52;;;;;;;;;;8273328;28;20049;-76
2022/12/18 02:05:09;;;;;;;29.13;12.13;;;;;;;;;;8289708;28;20026;-76
2022/12/18 02:09:10;;;;;;;27.92;11.40;;;;;;;;;;8273202;28;20025;-76
2022/12/18 02:13:16;;;;;;;37.22;11.40;;;;;;;;;;8274897;28;20061;-76
2022/12/18 02:17:19;;;;;;;35.58;11.95;;;;;;;;;;8275509;28;20955;-76
2022/12/18 02:21:25;;;;;;;42.60;11.20;;;;;;;;;;8283555;28;20080;-76
2022/12/18 02:25:28;;;;;;;23.40;11.13;;;;;;;;;;8272833;28;20029;-76
2022/12/18 02:29:31;;;;;;;46.03;11.98;;;;;;;;;;8275195;28;20048;-76
2022/12/18 02:33:33;;;;;;;45.58;11.85;;;;;;;;;;8271454;28;20049;-76
2022/12/18 02:37:34;;;;;;;53.97;13.55;;;;;;;;;;8273781;28;20026;-76
2022/12/18 02:41:36;;;;;;;65.30;12.30;;;;;;;;;;8273550;28;20128;-76
2022/12/18 02:45:45;;;;;;;27.27;12.32;;;;;;;;;;8272751;28;20064;-76
2022/12/18 02:49:58;;;;;;;32.75;11.65;;;;;;;;;;8272418;28;20034;-76
2022/12/18 02:54:10;;;;;;;29.88;12.35;;;;;;;;;;8274217;28;20025;-76
2022/12/18 02:58:29;;;;;;;29.02;11.68;;;;;;;;;;8274038;28;20025;-76
2022/12/18 03:02:37;;;;;;;23.35;11.10;;;;;;;;;;8272592;28;20042;-76
2022/12/18 03:06:40;;;;;;;43.60;12.48;;;;;;;;;;8279164;28;20022;-76
2022/12/18 03:10:43;;;;;;;28.75;11.68;;;;;;;;;;8273980;28;20036;-76
2022/12/18 03:14:46;;;;;;;25.63;10.77;;;;;;;;;;8273227;28;20064;-75
2022/12/18 03:18:48;;;;;;;22.48;10.10;;;;;;;;;;8272956;28;20113;-76
2022/12/18 03:22:51;;;;;;;22.10;10.00;;;;;;;;;;8270708;28;20493;-76
2022/12/18 03:26:53;;;;;;;23.88;10.55;;;;;;;;;;8269511;28;20686;-76
2022/12/18 03:30:56;;;;;;;20.42;9.73;;;;;;;;;;8280480;28;20038;-75
2022/12/18 03:35:00;;;;;;;20.08;9.57;;;;;;;;;;8268799;28;20036;-76
2022/12/18 03:39:00;;;;;;;13.90;7.15;;;;;;;;;;8272868;28;20022;-75
2022/12/18 03:43:08;;;;;;;21.30;10.38;;;;;;;;;;8272087;28;20033;-76
2022/12/18 03:47:11;;;;;;;17.73;8.85;;;;;;;;;;8286779;28;20276;-76
2022/12/18 03:51:18;;;;;;;19.43;9.43;;;;;;;;;;8271451;28;20898;-76
2022/12/18 03:55:19;;;;;;;21.92;10.43;;;;;;;;;;8272507;28;20040;-76
2022/12/18 03:59:19;;;;;;;23.75;10.02;;;;;;;;;;8271870;28;20029;-76
2022/12/18 04:03:20;;;;;;;24.52;10.30;;;;;;;;;;8270142;28;20063;-76
2022/12/18 04:07:21;;;;;;;17.73;8.23;;;;;;;;;;8269890;28;20030;-75
2022/12/18 04:11:22;;;;;;;20.70;8.48;;;;;;;;;;8270259;28;20109;-75
2022/12/18 04:15:22;;;;;;;24.75;10.13;;;;;;;;;;8270570;28;20128;-76
2022/12/18 04:19:22;;;;;;;20.48;9.00;;;;;;;;;;8271010;28;20038;-75
2022/12/18 04:23:22;;;;;;;21.77;10.10;;;;;;;;;;8270050;28;20108;-76
2022/12/18 04:27:23;;;;;;;22.73;10.32;;;;;;;;;;8267396;28;20140;-75
2022/12/18 04:31:23;;;;;;;17.90;9.13;;;;;;;;;;8271010;28;20044;-75
2022/12/18 04:35:23;;;;;;;18.60;9.30;;;;;;;;;;8278332;28;20030;-76
2022/12/18 04:39:23;;;;;;;19.92;9.88;;;;;;;;;;8275222;28;20026;-75
2022/12/18 04:43:23;;;;;;;24.90;10.60;;;;;;;;;;8277184;28;20030;-75
2022/12/18 04:47:24;;;;;;;22.08;9.90;;;;;;;;;;8281619;28;20049;-75
2022/12/18 04:51:24;;;;;;;24.70;9.32;;;;;;;;;;8276192;28;20036;-75
2022/12/18 04:55:24;;;;;;;20.80;10.13;;;;;;;;;;8272897;28;20068;-75
2022/12/18 04:59:24;;;;;;;22.00;9.25;;;;;;;;;;8275054;28;20033;-76
2022/12/18 05:03:25;;;;;;;20.95;9.32;;;;;;;;;;8274222;28;20277;-75
2022/12/18 05:07:25;;;;;;;21.05;9.10;;;;;;;;;;8274757;28;20030;-75
2022/12/18 05:11:25;;;;;;;21.05;9.73;;;;;;;;;;8286329;28;20398;-75
2022/12/18 05:15:29;;;;;;;24.10;10.50;;;;;;;;;;8274407;28;20261;-75
2022/12/18 05:19:30;;;;;;;19.50;8.80;;;;;;;;;;8275135;28;20336;-75
2022/12/18 05:23:30;;;;;;;23.85;10.30;;;;;;;;;;8277189;28;20064;-76
2022/12/18 05:27:30;;;;;;;18.98;9.10;;;;;;;;;;8275825;28;20577;-75
2022/12/18 05:31:30;;;;;;;20.10;8.52;;;;;;;;;;8275246;28;20466;-75
2022/12/18 05:35:31;;;;;;;16.08;7.90;;;;;;;;;;8274401;28;20026;-75
2022/12/18 05:39:31;;;;;;;16.73;8.40;;;;;;;;;;8274911;28;20325;-75
2022/12/18 05:43:33;;;;;;;17.10;7.88;;;;;;;;;;8274174;28;20021;-75
2022/12/18 05:47:33;;;;;;;16.77;8.25;;;;;;;;;;8276634;28;20048;-75
2022/12/18 05:51:33;;;;;;;12.55;6.65;;;;;;;;;;8274137;28;20026;-76
2022/12/18 05:55:38;;;;;;;13.68;7.35;;;;;;;;;;8273571;28;20052;-77
2022/12/18 05:59:38;;;;;;;12.52;6.90;;;;;;;;;;8274761;28;20021;-75
2022/12/18 06:03:38;;;;;;;12.90;7.22;;;;;;;;;;8283013;28;20046;-75
2022/12/18 06:07:39;;;;;;;11.52;6.25;;;;;;;;;;8274432;28;20033;-75
2022/12/18 06:11:39;;;;;;;10.77;5.72;;;;;;;;;;8280514;28;20033;-75
2022/12/18 06:15:39;;;;;;;12.48;6.28;;;;;;;;;;8273977;28;20348;-75
2022/12/18 06:19:39;;;;;;;10.02;5.70;;;;;;;;;;8272944;28;20030;-75
2022/12/18 06:23:40;;;;;;;12.00;6.47;;;;;;;;;;8270733;28;20152;-75
2022/12/18 06:27:40;;;;;;;15.73;8.27;;;;;;;;;;8272862;28;20279;-75
2022/12/18 06:31:40;;;;;;;19.35;9.45;;;;;;;;;;8273444;28;20041;-75
2022/12/18 06:35:41;;;;;;;16.77;8.73;;;;;;;;;;8272559;28;20061;-75
2022/12/18 06:39:41;;;;;;;15.63;8.35;;;;;;;;;;8272886;28;20025;-75
2022/12/18 06:43:41;;;;;;;17.65;9.65;;;;;;;;;;8271047;28;20041;-76
2022/12/18 06:47:42;;;;;;;24.00;12.23;;;;;;;;;;8271985;28;21936;-75
2022/12/18 06:51:42;;;;;;;22.05;11.68;;;;;;;;;;8275287;28;20144;-75
2022/12/18 06:55:42;;;;;;;20.85;10.55;;;;;;;;;;8271086;28;20276;-75
2022/12/18 06:59:42;;;;;;;27.98;13.13;;;;;;;;;;8278954;28;20026;-73
2022/12/18 07:03:43;;;;;;;31.63;13.30;;;;;;;;;;8268350;28;22371;-74
2022/12/18 07:07:43;;;;;;;25.80;11.45;;;;;;;;;;8261356;28;20918;-74
2022/12/18 07:11:43;;;;;;;34.92;14.75;;;;;;;;;;8266430;28;20337;-75
2022/12/18 07:15:43;;;;;;;31.70;13.80;;;;;;;;;;8265096;28;20030;-75
2022/12/18 07:19:44;;;;;;;24.67;11.77;;;;;;;;;;8268790;28;20269;-74
2022/12/18 07:23:47;;;;;;;19.83;10.65;;;;;;;;;;8268165;28;20025;-74
2022/12/18 07:27:47;;;;;;;18.10;10.13;;;;;;;;;;8270568;28;20025;-75
2022/12/18 07:31:48;;;;;;;24.75;10.65;;;;;;;;;;8270296;28;20052;-78
2022/12/18 07:35:49;;;;;;;21.50;10.20;;;;;;;;;;8270571;28;20026;-75
2022/12/18 07:39:49;;;;;;;22.40;9.52;;;;;;;;;;8269406;28;20032;-77
2022/12/18 07:43:49;;;;;;;19.92;10.35;;;;;;;;;;8270592;28;20451;-76
2022/12/18 07:47:49;;;;;;;23.45;10.00;;;;;;;;;;8269028;28;20099;-77
2022/12/18 07:51:50;;;;;;;49.72;23.27;;;;;;;;;;8269992;28;20022;-75
2022/12/18 07:55:54;;;;;;;34.35;15.45;;;;;;;;;;8269366;28;20057;-76
2022/12/18 07:59:55;;;;;;;31.27;15.55;;;;;;;;;;8267454;28;20025;-75
2022/12/18 08:03:55;;;;;;;48.72;21.48;;;;;;;;;;8267411;28;20045;-74
2022/12/18 08:07:56;;;;;;;40.85;17.85;;;;;;;;;;8268093;28;20025;-74
2022/12/18 08:11:56;;;;;;;63.33;24.08;;;;;;;;;;8270591;28;20095;-75
2022/12/18 08:16:01;;;;;;;39.30;17.27;;;;;;;;;;8275205;28;20929;-74
2022/12/18 08:20:01;;;;;;;44.53;19.33;;;;;;;;;;8277310;28;20112;-76
2022/12/18 08:24:01;;;;;;;40.35;18.70;;;;;;;;;;8276948;28;20069;-75
2022/12/18 08:28:02;;;;;;;41.90;19.83;;;;;;;;;;8274643;28;20022;-76
2022/12/18 08:32:02;;;;;;;54.85;21.85;;;;;;;;;;8274124;28;20034;-76
2022/12/18 08:36:03;;;;;;;54.45;22.67;;;;;;;;;;8273633;28;20029;-76
2022/12/18 08:40:04;;;;;;;54.53;20.55;;;;;;;;;;8276187;28;21112;-75
2022/12/18 08:48:23;;;;;;;78.57;23.35;;;;;;;;;;8273180;28;20841;-75
2022/12/18 08:52:23;;;;;;;148.77;25.75;;;;;;;;;;8274464;28;20365;-75
2022/12/18 08:56:24;;;;;;;53.10;20.92;;;;;;;;;;8274943;28;20284;-75
2022/12/18 09:00:24;;;;;;;100.90;22.70;;;;;;;;;;8276385;28;20138;-75
2022/12/18 09:04:24;;;;;;;76.68;22.50;;;;;;;;;;8275144;28;20025;-75
2022/12/18 09:08:25;;;;;;;89.30;24.98;;;;;;;;;;8270459;28;20040;-75
2022/12/18 09:12:25;;;;;;;85.68;25.00;;;;;;;;;;8273482;28;20029;-75
2022/12/18 09:16:27;;;;;;;54.17;22.08;;;;;;;;;;8273817;28;20076;-76
2022/12/18 09:20:29;;;;;;;46.60;20.13;;;;;;;;;;8274715;28;20025;-75
2022/12/18 09:24:29;;;;;;;66.05;23.10;;;;;;;;;;8271309;28;20021;-76
2022/12/18 09:28:30;;;;;;;49.60;20.13;;;;;;;;;;8273454;28;20026;-76
2022/12/18 09:32:30;;;;;;;58.95;20.88;;;;;;;;;;8274669;28;20044;-75
2022/12/18 09:36:30;;;;;;;54.90;21.70;;;;;;;;;;8277165;28;20103;-75
2022/12/18 09:40:34;;;;;;;55.10;23.13;;;;;;;;;;8277428;28;20026;-76
2022/12/18 09:44:42;;;;;;;47.95;21.05;;;;;;;;;;8271586;28;20096;-75
2022/12/18 09:48:46;;;;;;;48.90;20.85;;;;;;;;;;8273294;28;20781;-75
2022/12/18 09:52:49;;;;;;;57.75;24.00;;;;;;;;;;8273408;28;20137;-75
2022/12/18 09:56:49;;;;;;;47.28;21.65;;;;;;;;;;8270086;28;20053;-76
2022/12/18 10:00:51;;;;;;;58.85;25.45;;;;;;;;;;8271342;28;20037;-75
2022/12/18 10:04:59;;;;;;;50.28;21.20;;;;;;;;;;8271524;28;20052;-75
2022/12/18 10:09:16;;;;;;;60.08;24.48;;;;;;;;;;8271570;28;20029;-75
2022/12/18 10:13:32;;;;;;;57.63;25.70;;;;;;;;;;8269930;28;20033;-75
2022/12/18 10:17:35;;;;;;;48.35;21.73;;;;;;;;;;8270672;28;20045;-75
2022/12/18 10:21:43;;;;;;;53.97;23.98;;;;;;;;;;8271482;28;20018;-75
2022/12/18 10:25:46;;;;;;;58.10;26.02;;;;;;;;;;8269478;28;20114;-74
2022/12/18 10:29:46;;;;;;;61.83;25.90;;;;;;;;;;8269667;28;20037;-75
2022/12/18 10:33:46;;;;;;;57.83;25.05;;;;;;;;;;8270175;28;20104;-76
2022/12/18 10:38:20;;;;;;;52.17;23.95;;;;;;;;;;8269481;28;20029;-76
2022/12/18 10:42:20;;;;;;;53.33;23.63;;;;;;;;;;8233572;28;20323;-75
2022/12/18 10:46:21;;;;;;;48.83;22.20;;;;;;;;;;8269024;28;20045;-75
2022/12/18 10:50:27;;;;;;;62.03;26.73;;;;;;;;;;8272225;28;20064;-74
2022/12/18 10:54:28;;;;;;;53.35;25.02;;;;;;;;;;8269215;28;20030;-75
2022/12/18 10:58:31;;;;;;;52.05;23.00;;;;;;;;;;8271403;28;20147;-74
2022/12/18 11:02:35;;;;;;;50.63;23.33;;;;;;;;;;8269944;28;20033;-74
2022/12/18 11:06:51;;;;;;;52.60;25.55;;;;;;;;;;8269294;28;20057;-74
2022/12/18 11:10:51;;;;;;;45.75;20.23;;;;;;;;;;8268614;28;20657;-74
2022/12/18 11:14:53;;;;;;;49.67;24.85;;;;;;;;;;8267186;28;20061;-74
2022/12/18 11:18:56;;;;;;;49.55;24.13;;;;;;;;;;8270151;28;20623;-74
2022/12/18 11:22:58;;;;;;;48.83;23.45;;;;;;;;;;8270553;28;20112;-74
2022/12/18 11:27:00;;;;;;;41.10;21.25;;;;;;;;;;8269670;28;20021;-74
2022/12/18 11:31:15;;;;;;;46.70;23.60;;;;;;;;;;8267681;28;20048;-74
2022/12/18 11:35:16;;;;;;;41.03;21.05;;;;;;;;;;8269215;28;20030;-74
2022/12/18 11:39:24;;;;;;;41.95;19.77;;;;;;;;;;8268940;28;20093;-74
2022/12/18 11:43:27;;;;;;;50.53;25.63;;;;;;;;;;8275635;28;20398;-75
2022/12/18 11:47:30;;;;;;;43.40;20.15;;;;;;;;;;8266944;28;20153;-75
2022/12/18 11:51:46;;;;;;;42.17;20.40;;;;;;;;;;8270787;28;20440;-75
2022/12/18 11:55:54;;;;;;;44.35;22.02;;;;;;;;;;8267737;28;20026;-75
2022/12/18 11:59:59;;;;;;;53.97;24.95;;;;;;;;;;8284291;28;20072;-75
2022/12/18 12:04:26;;;;;;;41.72;21.63;;;;;;;;;;8268065;28;20156;-75
2022/12/18 12:08:26;;;;;;;46.47;22.35;;;;;;;;;;8270564;28;20041;-76
2022/12/18 12:12:45;;;;;;;51.10;24.48;;;;;;;;;;8271352;28;20134;-77
2022/12/18 12:16:45;;;;;;;56.35;27.90;;;;;;;;;;8268482;28;20467;-77
2022/12/18 12:20:56;;;;;;;48.05;23.23;;;;;;;;;;8270253;28;20041;-75
2022/12/18 12:25:03;;;;;;;56.65;26.33;;;;;;;;;;8267885;28;20879;-75
2022/12/18 12:29:27;;;;;;;50.28;24.35;;;;;;;;;;8266807;28;20430;-76
2022/12/18 12:33:44;;;;;;;42.15;21.55;;;;;;;;;;8258123;28;20695;-75
2022/12/18 12:37:44;;;;;;;47.20;22.30;;;;;;;;;;8269025;28;20473;-74
2022/12/18 12:46:06;;;;;;;46.33;22.30;;;;;;;;;;8267105;28;20122;-75
2022/12/18 12:50:13;;;;;;;52.78;26.15;;;;;;;;;;8266744;28;20573;-74
2022/12/18 12:54:21;;;;;;;64.75;27.67;;;;;;;;;;8266882;28;20053;-74
2022/12/18 12:58:33;;;;;;;59.33;27.85;;;;;;;;;;8272480;28;20965;-75
2022/12/18 13:02:37;;;;;;;61.88;27.52;;;;;;;;;;8281034;28;20806;-77
2022/12/18 13:06:37;;;;;;;64.05;28.55;;;;;;;;;;8283223;28;20065;-76
2022/12/18 13:10:37;;;;;;;63.33;26.80;;;;;;;;;;8275593;28;20029;-76
2022/12/18 13:14:39;;;;;;;54.78;27.02;;;;;;;;;;8272681;28;20388;-77
2022/12/18 13:18:47;;;;;;;58.50;26.08;;;;;;;;;;8274719;28;20030;-76
2022/12/18 13:22:48;;;;;;;56.97;27.23;;;;;;;;;;8273621;28;21010;-76
2022/12/18 13:26:48;;;;;;;55.50;25.02;;;;;;;;;;8274335;28;20457;-77
2022/12/18 13:30:55;;;;;;;49.28;23.23;;;;;;;;;;8274844;28;20030;-76
2022/12/18 13:35:15;;;;;;;63.50;27.83;;;;;;;;;;8280743;28;20030;-76
2022/12/18 13:39:15;;;;;;;49.03;24.20;;;;;;;;;;8274762;28;20064;-77
2022/12/18 13:43:35;;;;;;;55.53;25.50;;;;;;;;;;8274644;28;20032;-77
2022/12/18 13:47:39;;;;;;;52.42;25.15;;;;;;;;;;8273080;28;20049;-77
2022/12/18 13:51:46;;;;;;;58.03;26.02;;;;;;;;;;8274066;28;20909;-76
2022/12/18 13:55:48;;;;;;;53.10;24.92;;;;;;;;;;8273006;28;20695;-76
2022/12/18 13:59:49;;;;;;;48.80;23.45;;;;;;;;;;8280484;28;20109;-76
2022/12/18 14:03:49;;;;;;;56.20;26.27;;;;;;;;;;8277018;28;20131;-76
2022/12/18 14:07:49;;;;;;;51.47;25.80;;;;;;;;;;8280321;28;20280;-75
2022/12/18 14:11:50;;;;;;;45.63;22.63;;;;;;;;;;8281119;28;20017;-75
2022/12/18 14:15:51;;;;;;;52.47;24.38;;;;;;;;;;8278998;28;20915;-76
2022/12/18 14:19:51;;;;;;;48.92;22.67;;;;;;;;;;8273860;28;20728;-76
2022/12/18 14:24:10;;;;;;;48.05;22.75;;;;;;;;;;8276549;28;20118;-76
2022/12/18 14:28:15;;;;;;;51.40;24.95;;;;;;;;;;8275332;28;20022;-75
2022/12/18 14:32:17;;;;;;;52.92;25.65;;;;;;;;;;8279720;28;20042;-76
2022/12/18 14:36:18;;;;;;;63.97;29.17;;;;;;;;;;8272286;28;20021;-78
2022/12/18 14:40:19;;;;;;;57.08;28.40;;;;;;;;;;8287624;28;20022;-76
2022/12/18 14:44:21;;;;;;;52.22;25.42;;;;;;;;;;8272314;28;20030;-76
2022/12/18 14:48:31;;;;;;;59.20;26.52;;;;;;;;;;8280615;28;20033;-76
2022/12/18 14:52:31;;;;;;;62.70;29.42;;;;;;;;;;8271298;28;20060;-76
2022/12/18 14:56:35;;;;;;;67.13;29.02;;;;;;;;;;8274516;28;20033;-75
2022/12/18 15:00:41;;;;;;;64.70;32.22;;;;;;;;;;8270760;28;20042;-76
2022/12/18 15:04:41;;;;;;;59.20;29.10;;;;;;;;;;8269397;28;20033;-77
2022/12/18 15:08:42;;;;;;;59.92;28.10;;;;;;;;;;8275916;28;20439;-77
2022/12/18 15:12:42;;;;;;;52.67;27.52;;;;;;;;;;8272553;28;20963;-77
2022/12/18 15:16:43;;;;;;;65.03;28.17;;;;;;;;;;8270739;28;20123;-77
2022/12/18 15:20:51;;;;;;;63.00;29.75;;;;;;;;;;8271136;28;20041;-76
2022/12/18 15:24:52;;;;;;;59.97;27.88;;;;;;;;;;8269857;28;20022;-76
2022/12/18 15:28:55;;;;;;;59.22;27.70;;;;;;;;;;8270793;28;20029;-76
2022/12/18 15:33:14;;;;;;;64.88;29.80;;;;;;;;;;8272520;28;20042;-76
2022/12/18 15:37:15;;;;;;;74.80;30.90;;;;;;;;;;8270655;28;20018;-77
2022/12/18 15:41:17;;;;;;;66.28;30.05;;;;;;;;;;8271079;28;20053;-76
2022/12/18 15:45:18;;;;;;;64.30;29.25;;;;;;;;;;8275659;28;20571;-76
2022/12/18 15:49:18;;;;;;;60.63;27.77;;;;;;;;;;8275134;28;20080;-75
2022/12/18 15:53:18;;;;;;;63.03;27.00;;;;;;;;;;8274480;28;20447;-76
2022/12/18 15:57:25;;;;;;;66.50;29.60;;;;;;;;;;8270412;28;20392;-76
2022/12/18 16:01:26;;;;;;;61.45;27.23;;;;;;;;;;8271879;28;20026;-76
2022/12/18 16:05:27;;;;;;;72.55;30.02;;;;;;;;;;8270734;28;20026;-77
2022/12/18 16:09:27;;;;;;;68.70;30.15;;;;;;;;;;8270049;28;20037;-77
2022/12/18 16:13:28;;;;;;;58.85;27.58;;;;;;;;;;8272583;28;20716;-77
2022/12/18 16:17:28;;;;;;;59.45;28.10;;;;;;;;;;8274925;28;20049;-76
2022/12/18 16:21:28;;;;;;;65.85;30.40;;;;;;;;;;8284785;28;20144;-76
2022/12/18 16:25:28;;;;;;;64.73;32.00;;;;;;;;;;8279921;28;20273;-76
2022/12/18 16:29:29;;;;;;;50.60;24.67;;;;;;;;;;8287721;28;20287;-76
2022/12/18 16:33:29;;;;;;;53.67;26.92;;;;;;;;;;8279925;28;20041;-76
2022/12/18 16:37:30;;;;;;;61.55;30.38;;;;;;;;;;8293282;28;20009;-75
2022/12/18 16:41:31;;;;;;;57.08;29.35;;;;;;;;;;8304490;28;20029;-75
2022/12/18 16:45:32;;;;;;;67.18;28.85;;;;;;;;;;8280810;28;20040;-75
2022/12/18 16:49:32;;;;;;;54.40;25.15;;;;;;;;;;8275132;28;20093;-76
2022/12/18 16:53:34;;;;;;;52.47;23.08;;;;;;;;;;8279046;28;20037;-76
2022/12/18 16:57:34;;;;;;;60.55;27.50;;;;;;;;;;8278668;28;20026;-75
2022/12/18 17:01:34;;;;;;;46.88;22.83;;;;;;;;;;8273237;28;20088;-75
2022/12/18 17:05:35;;;;;;;48.83;21.30;;;;;;;;;;8276023;28;20585;-75
2022/12/18 17:09:35;;;;;;;47.60;23.10;;;;;;;;;;8274026;28;20281;-76
2022/12/18 17:13:35;;;;;;;46.83;22.23;;;;;;;;;;8278882;28;20034;-75
2022/12/18 17:17:36;;;;;;;48.53;21.65;;;;;;;;;;8275430;28;20034;-75
2022/12/18 17:21:36;;;;;;;46.35;23.45;;;;;;;;;;8281623;28;20037;-75
2022/12/18 17:25:40;;;;;;;61.47;26.13;;;;;;;;;;8279399;28;21112;-77
2022/12/18 17:29:40;;;;;;;56.67;27.05;;;;;;;;;;8275140;28;20900;-76
2022/12/18 17:33:41;;;;;;;55.95;26.45;;;;;;;;;;8281991;28;20543;-76
2022/12/18 17:37:41;;;;;;;65.93;29.52;;;;;;;;;;8277860;28;20025;-76
2022/12/18 17:41:42;;;;;;;54.88;24.80;;;;;;;;;;8273875;28;20407;-76
2022/12/18 17:45:42;;;;;;;45.85;23.05;;;;;;;;;;8271956;28;20742;-76
2022/12/18 17:49:42;;;;;;;47.83;21.92;;;;;;;;;;8279925;28;20140;-76
2022/12/18 17:53:43;;;;;;;55.00;23.13;;;;;;;;;;8287176;28;20025;-76
2022/12/18 17:57:43;;;;;;;48.88;24.02;;;;;;;;;;8284148;28;20017;-76
2022/12/18 18:01:43;;;;;;;45.35;21.88;;;;;;;;;;8278790;28;20785;-76
2022/12/18 18:05:43;;;;;;;53.13;22.15;;;;;;;;;;8274391;28;20379;-76
2022/12/18 18:09:44;;;;;;;55.10;25.10;;;;;;;;;;8281590;28;20100;-76
2022/12/18 18:14:03;;;;;;;59.22;26.65;;;;;;;;;;8274147;28;20145;-76
2022/12/18 18:18:03;;;;;;;60.63;25.52;;;;;;;;;;8272998;28;20498;-76
2022/12/18 18:22:03;;;;;;;44.90;22.77;;;;;;;;;;8270755;28;20025;-75
2022/12/18 18:26:04;;;;;;;46.73;20.83;;;;;;;;;;8271787;28;20026;-76
2022/12/18 18:30:05;;;;;;;55.58;25.88;;;;;;;;;;8306214;28;20339;-76
2022/12/18 18:34:05;;;;;;;51.83;22.05;;;;;;;;;;8288628;28;20738;-76
2022/12/18 18:38:06;;;;;;;63.93;29.17;;;;;;;;;;8279935;28;20026;-76
2022/12/18 18:42:06;;;;;;;55.63;26.65;;;;;;;;;;8285624;28;20289;-76
2022/12/18 18:46:06;;;;;;;56.40;26.08;;;;;;;;;;8277614;28;20044;-76
2022/12/18 18:50:07;;;;;;;51.08;23.08;;;;;;;;;;8272899;28;20021;-76
2022/12/18 18:54:07;;;;;;;49.00;22.80;;;;;;;;;;8269626;28;20485;-75
2022/12/18 18:58:07;;;;;;;47.88;22.30;;;;;;;;;;8267640;28;20156;-75
2022/12/18 19:02:10;;;;;;;52.90;22.85;;;;;;;;;;8272306;28;20048;-76
2022/12/18 19:06:12;;;;;;;48.63;22.35;;;;;;;;;;8279119;28;20057;-76
2022/12/18 19:10:13;;;;;;;51.67;23.90;;;;;;;;;;8272605;28;20032;-76
2022/12/18 19:14:14;;;;;;;52.50;23.48;;;;;;;;;;8274319;28;20034;-76
2022/12/18 19:18:14;;;;;;;45.42;21.70;;;;;;;;;;8272175;28;20038;-76
2022/12/18 19:22:14;;;;;;;46.97;21.38;;;;;;;;;;8272678;28;20030;-76
2022/12/18 19:26:15;;;;;;;49.33;23.10;;;;;;;;;;8271303;28;20113;-77
2022/12/18 19:30:15;;;;;;;47.10;22.88;;;;;;;;;;8272377;28;20136;-76
2022/12/18 19:34:16;;;;;;;52.08;23.77;;;;;;;;;;8273440;28;20056;-76
2022/12/18 19:38:16;;;;;;;50.30;23.30;;;;;;;;;;8278770;28;20347;-76
2022/12/18 19:42:16;;;;;;;46.40;22.15;;;;;;;;;;8271546;28;20116;-76
2022/12/18 19:46:17;;;;;;;47.35;23.08;;;;;;;;;;8272277;28;20069;-76
2022/12/18 19:50:19;;;;;;;52.72;21.80;;;;;;;;;;8271548;28;20277;-76
2022/12/18 19:54:19;;;;;;;57.00;23.92;;;;;;;;;;8272141;28;20112;-76
2022/12/18 19:58:19;;;;;;;44.42;21.02;;;;;;;;;;8272108;28;20060;-76
2022/12/18 20:02:19;;;;;;;51.40;22.38;;;;;;;;;;8277779;28;20269;-76
2022/12/18 20:06:24;;;;;;;51.42;23.10;;;;;;;;;;8272684;28;20026;-77
2022/12/18 20:10:24;;;;;;;47.80;22.30;;;;;;;;;;8274333;28;20018;-77
2022/12/18 20:14:25;;;;;;;45.28;20.65;;;;;;;;;;8273477;28;20037;-76
2022/12/18 20:18:25;;;;;;;44.92;21.95;;;;;;;;;;8273115;28;20034;-76
2022/12/18 20:22:25;;;;;;;47.08;23.73;;;;;;;;;;8272578;28;20021;-76
2022/12/18 20:26:26;;;;;;;47.55;21.63;;;;;;;;;;8272243;28;20391;-77
2022/12/18 20:30:26;;;;;;;43.63;21.27;;;;;;;;;;8272623;28;20068;-77
2022/12/18 20:34:27;;;;;;;47.92;22.73;;;;;;;;;;8273244;28;20287;-76
2022/12/18 20:38:28;;;;;;;49.60;22.45;;;;;;;;;;8271998;28;20672;-76
2022/12/18 20:42:28;;;;;;;49.97;23.35;;;;;;;;;;8272407;28;20153;-76
2022/12/18 20:46:28;;;;;;;43.50;20.38;;;;;;;;;;8268183;28;20109;-78
2022/12/18 20:50:29;;;;;;;42.90;20.95;;;;;;;;;;8272962;28;20272;-76
2022/12/18 20:54:29;;;;;;;43.33;20.63;;;;;;;;;;8278104;28;20026;-76
2022/12/18 20:58:29;;;;;;;46.92;21.90;;;;;;;;;;8271031;28;20264;-76
2022/12/18 21:02:29;;;;;;;45.40;20.48;;;;;;;;;;8271527;28;20034;-76
2022/12/18 21:06:30;;;;;;;44.55;19.92;;;;;;;;;;8276652;28;20053;-76
2022/12/18 21:10:30;;;;;;;38.75;18.77;;;;;;;;;;8273952;28;20029;-76
2022/12/18 21:14:30;;;;;;;46.97;21.33;;;;;;;;;;8270031;28;20033;-77
2022/12/18 21:18:30;;;;;;;37.15;19.80;;;;;;;;;;8269798;28;20137;-76
2022/12/18 21:22:31;;;;;;;45.17;21.88;;;;;;;;;;8275651;28;20145;-77
2022/12/18 21:26:31;;;;;;;45.17;22.17;;;;;;;;;;8278549;28;20026;-76
2022/12/18 21:30:31;;;;;;;43.93;20.90;;;;;;;;;;8277411;28;20034;-77
2022/12/18 21:34:32;;;;;;;44.35;21.48;;;;;;;;;;8275115;28;20320;-76
2022/12/18 21:38:32;;;;;;;46.03;21.80;;;;;;;;;;8276170;28;20021;-76
2022/12/18 21:46:51;;;;;;;47.60;22.10;;;;;;;;;;8277465;28;20891;-76
2022/12/18 21:50:51;;;;;;;49.58;22.23;;;;;;;;;;8277742;28;20108;-75
2022/12/18 21:54:51;;;;;;;44.67;21.73;;;;;;;;;;8275250;28;20021;-76
2022/12/18 21:58:52;;;;;;;48.40;21.95;;;;;;;;;;8276007;28;20308;-76
2022/12/18 22:02:52;;;;;;;41.50;20.45;;;;;;;;;;8277047;28;20145;-76
2022/12/18 22:06:53;;;;;;;42.28;20.45;;;;;;;;;;8275561;28;20033;-76
2022/12/18 22:10:54;;;;;;;44.90;21.30;;;;;;;;;;8275400;28;20033;-76
2022/12/18 22:14:54;;;;;;;46.15;21.98;;;;;;;;;;8276457;28;20463;-76
2022/12/18 22:18:54;;;;;;;42.53;21.10;;;;;;;;;;8274474;28;20057;-76
2022/12/18 22:22:55;;;;;;;41.35;20.15;;;;;;;;;;8274708;28;20089;-75
2022/12/18 22:26:57;;;;;;;52.92;24.02;;;;;;;;;;8275719;28;20022;-77
2022/12/18 22:30:57;;;;;;;47.45;22.38;;;;;;;;;;8271761;28;20697;-76
2022/12/18 22:35:01;;;;;;;46.42;22.08;;;;;;;;;;8275046;28;20088;-76
2022/12/18 22:39:02;;;;;;;55.78;26.25;;;;;;;;;;8272822;28;20434;-76
2022/12/18 22:43:03;;;;;;;48.70;21.70;;;;;;;;;;8289241;28;20060;-76
2022/12/18 22:47:03;;;;;;;43.78;21.38;;;;;;;;;;8272487;28;20048;-76
2022/12/18 22:51:03;;;;;;;48.83;24.58;;;;;;;;;;8272036;28;20036;-76
2022/12/18 22:55:04;;;;;;;45.50;21.67;;;;;;;;;;8272572;28;20026;-76
2022/12/18 22:59:04;;;;;;;52.45;22.98;;;;;;;;;;8288442;28;20360;-76
2022/12/18 23:03:05;;;;;;;50.90;23.25;;;;;;;;;;8279862;28;20042;-77
2022/12/18 23:07:05;;;;;;;46.05;21.63;;;;;;;;;;8274609;28;20025;-76
2022/12/18 23:11:06;;;;;;;47.50;22.27;;;;;;;;;;8272679;28;20277;-76
2022/12/18 23:15:06;;;;;;;51.17;22.95;;;;;;;;;;8271277;28;20026;-77
2022/12/18 23:19:06;;;;;;;50.35;22.67;;;;;;;;;;8274352;28;20013;-77
2022/12/18 23:23:07;;;;;;;44.13;21.83;;;;;;;;;;8281022;28;20712;-76
2022/12/18 23:27:07;;;;;;;49.13;21.83;;;;;;;;;;8274737;28;20025;-76
2022/12/18 23:31:24;;;;;;;50.45;22.75;;;;;;;;;;8270572;28;20034;-76
2022/12/18 23:35:24;;;;;;;47.22;21.38;;;;;;;;;;8271653;28;20054;-77
2022/12/18 23:39:25;;;;;;;46.38;21.52;;;;;;;;;;8269586;28;20730;-77
2022/12/18 23:43:25;;;;;;;42.10;21.20;;;;;;;;;;8273241;28;20033;-76